Time;durP1;ratioP1;P1;durP2;ratioP2;P2;SDS_P1;SDS_P2;PMS_P1;PMS_P2;Temp;Humidity;BMP_temperature;BMP_pressure;BME280_temperature;BME280_humidity;BME280_pressure;Samples;Min_cycle;Max_cycle;Signal;HPM_P1;HPM_P2
2023/06/20 00:00:35;;;;;;;15.50;9.30;;;;;;;18.04;69.78;98549.27;105085;1261;98720;-61
2023/06/20 00:03:03;;;;;;;13.80;9.30;;;;;;;18.01;69.73;98553.48;105241;1268;96548;-62
2023/06/20 00:05:30;;;;;;;14.60;9.30;;;;;;;18.01;69.79;98550.33;105109;1264;96822;-61
2023/06/20 00:07:57;;;;;;;16.00;10.00;;;;;;;18.04;69.64;98553.06;105079;1276;97451;-61
2023/06/20 00:10:25;;;;;;;14.70;9.70;;;;;;;18.08;69.53;98549.90;105249;1266;96613;-61
2023/06/20 00:12:52;;;;;;;12.50;9.30;;;;;;;18.10;69.53;98551.77;105287;1257;96542;-61
2023/06/20 00:15:25;;;;;;;14.60;9.60;;;;;;;18.10;69.82;98554.46;105213;1266;96634;-61
2023/06/20 00:17:54;;;;;;;15.10;9.70;;;;;;;18.04;70.00;98550.22;105114;1260;96754;-61
2023/06/20 00:20:21;;;;;;;19.60;10.60;;;;;;;17.97;70.14;98553.73;105295;1267;97739;-61
2023/06/20 00:22:50;;;;;;;19.00;10.60;;;;;;;17.91;70.43;98551.15;105275;1261;96651;-61
2023/06/20 00:25:17;;;;;;;15.60;10.50;;;;;;;17.83;70.82;98549.98;105251;1256;99204;-61
2023/06/20 00:27:45;;;;;;;14.80;10.90;;;;;;;17.76;70.91;98549.13;105298;1266;97146;-61
2023/06/20 00:30:13;;;;;;;14.30;10.30;;;;;;;17.66;71.13;98548.14;105256;1267;96641;-61
2023/06/20 00:32:40;;;;;;;14.30;10.30;;;;;;;17.56;71.34;98549.60;105104;1260;97862;-59
2023/06/20 00:35:08;;;;;;;14.00;10.20;;;;;;;17.49;71.79;98554.13;105162;1266;97866;-59
2023/06/20 00:37:37;;;;;;;15.80;10.90;;;;;;;17.45;71.82;98554.42;105248;1266;96551;-59
2023/06/20 00:40:07;;;;;;;16.40;10.90;;;;;;;17.49;71.64;98551.20;105283;1266;108151;-59
2023/06/20 00:42:35;;;;;;;16.50;11.00;;;;;;;17.54;71.63;98549.16;105062;1269;97464;-59
2023/06/20 00:45:03;;;;;;;14.60;10.80;;;;;;;17.59;71.42;98549.97;105213;1257;96628;-59
2023/06/20 00:47:31;;;;;;;16.10;11.20;;;;;;;17.62;71.26;98552.81;105241;1257;110527;-61
2023/06/20 00:49:58;;;;;;;17.60;11.10;;;;;;;17.62;71.39;98550.13;105245;1268;99223;-61
2023/06/20 00:52:25;;;;;;;20.60;12.20;;;;;;;17.57;71.44;98548.20;105240;1267;97850;-61
2023/06/20 00:54:52;;;;;;;16.70;11.80;;;;;;;17.52;71.48;98548.73;105269;1257;96558;-61
2023/06/20 00:57:20;;;;;;;16.00;11.30;;;;;;;17.50;71.55;98551.13;105259;1258;97354;-61
2023/06/20 00:59:48;;;;;;;16.90;11.50;;;;;;;17.44;71.69;98555.36;105178;1256;96669;-61
2023/06/20 01:02:16;;;;;;;15.30;10.90;;;;;;;17.39;71.70;98552.64;105074;1261;99995;-61
2023/06/20 01:04:46;;;;;;;15.80;11.20;;;;;;;17.36;71.80;98552.73;105127;1264;108518;-67
2023/06/20 01:07:57;;;;;;;19.70;13.40;;;;;;;17.35;71.85;98554.23;105133;1266;96552;-61
2023/06/20 01:10:49;;;;;;;17.80;11.90;;;;;;;17.30;72.14;98552.61;104972;1268;96561;-60
2023/06/20 01:13:16;;;;;;;17.30;11.20;;;;;;;17.23;72.34;98548.19;105297;1264;110754;-60
2023/06/20 01:15:55;;;;;;;18.10;11.50;;;;;;;17.18;72.44;98548.48;105222;1266;96558;-60
2023/06/20 01:18:30;;;;;;;15.20;11.40;;;;;;;17.12;72.93;98550.86;105201;1257;107655;-60
2023/06/20 01:21:07;;;;;;;17.40;12.20;;;;;;;17.09;72.90;98546.53;105069;1260;97859;-60
2023/06/20 01:24:23;;;;;;;15.70;11.70;;;;;;;17.14;73.07;98545.54;105099;1260;98230;-60
2023/06/20 01:27:01;;;;;;;17.50;11.70;;;;;;;17.16;73.92;98546.59;104518;1281;110919;-60
2023/06/20 01:29:32;;;;;;;15.20;11.40;;;;;;;17.15;73.46;98550.39;104560;1279;96950;-60
2023/06/20 01:32:04;;;;;;;17.60;12.10;;;;;;;17.16;73.08;98548.29;104530;1275;107605;-60
2023/06/20 01:34:37;;;;;;;15.80;12.30;;;;;;;17.20;73.12;98545.19;104554;1274;96568;-60
2023/06/20 01:37:11;;;;;;;17.50;12.10;;;;;;;17.12;73.35;98546.83;104464;1270;97727;-60
2023/06/20 01:39:44;;;;;;;16.70;12.50;;;;;;;16.99;73.66;98544.38;104596;1273;110947;-61
2023/06/20 01:42:14;;;;;;;16.10;11.70;;;;;;;16.92;73.51;98543.35;104509;1264;98891;-61
2023/06/20 01:44:43;;;;;;;16.50;12.40;;;;;;;16.87;73.86;98541.10;104586;1275;108600;-61
2023/06/20 01:47:13;;;;;;;21.00;12.70;;;;;;;16.83;73.75;98541.80;104591;1264;97681;-61
2023/06/20 01:49:42;;;;;;;18.50;12.10;;;;;;;16.85;73.81;98540.83;104435;1276;96619;-60
2023/06/20 01:52:11;;;;;;;17.20;11.50;;;;;;;16.90;73.83;98539.26;104574;1274;111363;-61
2023/06/20 01:54:41;;;;;;;16.00;12.20;;;;;;;16.88;73.74;98543.02;104533;1266;99285;-60
2023/06/20 01:57:09;;;;;;;15.90;11.10;;;;;;;16.87;73.75;98541.35;104521;1266;108877;-61
2023/06/20 01:59:38;;;;;;;15.10;11.70;;;;;;;16.88;73.85;98541.02;104576;1266;96643;-61
2023/06/20 02:02:06;;;;;;;16.80;11.20;;;;;;;16.89;73.72;98542.58;104586;1276;97806;-61
2023/06/20 02:04:34;;;;;;;17.80;11.90;;;;;;;16.88;73.85;98542.23;104948;1268;110814;-61
2023/06/20 02:07:06;;;;;;;19.10;12.10;;;;;;;16.92;73.94;98537.66;105064;1270;97862;-61
2023/06/20 02:09:35;;;;;;;16.00;11.80;;;;;;;16.97;73.89;98539.76;105230;1266;107596;-61
2023/06/20 02:12:06;;;;;;;18.40;12.40;;;;;;;16.93;74.16;98534.91;105272;1257;96551;-61
2023/06/20 02:14:34;;;;;;;16.00;12.30;;;;;;;16.80;74.34;98535.80;105294;1257;96805;-61
2023/06/20 02:17:03;;;;;;;16.60;12.50;;;;;;;16.74;74.56;98539.63;105021;1261;109958;-61
2023/06/20 02:19:31;;;;;;;17.20;13.20;;;;;;;16.66;74.82;98538.30;105066;1260;98080;-61
2023/06/20 02:21:59;;;;;;;17.40;12.00;;;;;;;16.55;75.36;98538.20;105221;1266;108074;-61
2023/06/20 02:24:31;;;;;;;16.80;12.30;;;;;;;16.45;75.71;98541.36;105022;1257;97550;-61
2023/06/20 02:27:02;;;;;;;18.10;12.80;;;;;;;16.39;75.84;98545.01;105113;1264;96567;-61
2023/06/20 02:29:37;;;;;;;16.80;12.40;;;;;;;16.34;75.79;98539.88;105206;1260;110962;-64
2023/06/20 02:32:06;;;;;;;17.10;12.30;;;;;;;16.31;75.71;98539.97;105006;1267;99163;-63
2023/06/20 02:34:34;;;;;;;16.80;11.80;;;;;;;16.27;76.34;98539.86;105274;1270;107125;-61
2023/06/20 02:37:04;;;;;;;16.30;12.50;;;;;;;16.16;76.60;98540.38;105257;1256;96554;-61
2023/06/20 02:39:31;;;;;;;18.60;11.90;;;;;;;16.07;76.80;98539.97;105250;1266;96469;-61
2023/06/20 02:41:59;;;;;;;15.70;12.30;;;;;;;16.01;76.82;98539.36;105273;1257;96567;-61
2023/06/20 02:44:26;;;;;;;17.70;13.20;;;;;;;16.02;76.83;98541.66;105246;1266;99309;-61
2023/06/20 02:47:33;;;;;;;18.50;11.80;;;;;;;16.02;77.46;98536.31;105227;1266;96524;-61
2023/06/20 02:50:13;;;;;;;18.30;12.50;;;;;;;15.97;77.71;98538.36;105225;1266;97853;-62
2023/06/20 02:53:17;;;;;;;16.50;12.00;;;;;;;15.93;77.66;98539.35;105241;1255;97343;-61
2023/06/20 02:55:50;;;;;;;17.90;12.90;;;;;;;15.95;77.52;98544.62;105116;1257;111125;-61
2023/06/20 02:58:21;;;;;;;18.00;12.30;;;;;;;16.03;77.24;98546.99;105281;1257;99186;-62
2023/06/20 03:00:49;;;;;;;;;;;;;;;16.14;77.31;98551.14;105262;1255;109019;-61
2023/06/20 03:03:29;;;;;;;19.00;13.80;;;;;;;16.20;77.24;98548.78;105020;1261;96643;-59
2023/06/20 03:05:58;;;;;;;16.80;11.90;;;;;;;16.20;77.34;98547.13;105294;1257;97745;-59
2023/06/20 03:08:27;;;;;;;16.80;11.60;;;;;;;16.13;77.56;98550.73;105227;1258;110480;-59
2023/06/20 03:10:58;;;;;;;19.50;12.80;;;;;;;16.12;77.67;98550.22;105075;1254;324885;-59
2023/06/20 03:13:26;;;;;;;16.10;12.30;;;;;;;16.15;77.61;98552.30;105001;1261;107187;-59
2023/06/20 03:15:57;;;;;;;16.50;11.80;;;;;;;16.23;77.51;98548.95;105022;1262;96737;-59
2023/06/20 03:18:24;;;;;;;19.30;12.10;;;;;;;16.29;77.61;98550.20;105238;1262;97729;-60
2023/06/20 03:20:55;;;;;;;18.90;12.10;;;;;;;16.35;77.52;98551.77;105074;1270;110071;-60
2023/06/20 03:23:33;;;;;;;20.50;12.70;;;;;;;16.49;77.37;98555.45;105236;1257;99324;-61
2023/06/20 03:26:06;;;;;;;20.00;12.90;;;;;;;16.59;77.25;98551.73;105208;1266;109351;-60
2023/06/20 03:28:41;;;;;;;24.40;12.80;;;;;;;16.62;77.51;98553.55;105018;1267;97905;-61
2023/06/20 03:31:12;;;;;;;22.50;12.00;;;;;;;16.63;77.74;98550.17;105057;1255;98314;-61
2023/06/20 03:33:45;;;;;;;18.10;12.30;;;;;;;16.64;77.89;98548.39;105279;1267;109767;-61
2023/06/20 03:36:17;;;;;;;20.40;11.70;;;;;;;16.69;78.04;98551.27;105204;1260;99057;-61
2023/06/20 03:38:50;;;;;;;18.20;12.60;;;;;;;16.74;78.06;98550.45;104962;1269;108249;-61
2023/06/20 03:41:26;;;;;;;19.80;11.90;;;;;;;16.79;78.04;98554.44;105030;1257;96705;-61
2023/06/20 03:43:59;;;;;;;19.20;12.40;;;;;;;16.87;77.85;98559.52;105088;1266;96889;-61
2023/06/20 03:46:29;;;;;;;20.20;12.60;;;;;;;16.97;77.67;98563.63;104838;1270;109920;-61
2023/06/20 03:48:56;;;;;;;16.00;12.00;;;;;;;17.06;77.73;98565.81;105146;1266;97859;-61
2023/06/20 03:51:23;;;;;;;18.00;11.70;;;;;;;17.12;77.69;98567.09;105017;1254;96574;-61
2023/06/20 03:53:50;;;;;;;18.40;12.20;;;;;;;17.18;77.77;98569.04;105051;1264;97854;-62
2023/06/20 03:56:17;;;;;;;21.50;12.10;;;;;;;17.21;78.00;98566.73;105176;1266;97886;-67
2023/06/20 03:58:44;;;;;;;19.80;12.60;;;;;;;17.27;77.68;98570.52;105312;1266;96631;-61
2023/06/20 04:01:11;;;;;;;20.90;12.80;;;;;;;17.42;77.54;98575.25;105094;1258;97222;-62
2023/06/20 04:03:38;;;;;;;22.60;12.90;;;;;;;17.53;77.45;98569.02;105236;1267;96632;-59
2023/06/20 04:06:06;;;;;;;20.80;12.50;;;;;;;17.67;77.14;98568.11;105297;1254;97879;-59
2023/06/20 04:08:33;;;;;;;17.30;12.40;;;;;;;17.80;77.02;98568.15;105139;1260;110539;-60
2023/06/20 04:11:00;;;;;;;17.50;12.90;;;;;;;17.93;76.84;98565.93;105196;1254;96545;-59
2023/06/20 04:13:28;;;;;;;15.80;12.30;;;;;;;18.06;76.69;98565.39;105212;1260;97750;-62
2023/06/20 04:15:55;;;;;;;20.30;11.80;;;;;;;18.23;76.70;98567.00;105116;1268;97832;-60
2023/06/20 04:18:22;;;;;;;15.00;11.40;;;;;;;18.39;76.04;98562.77;105206;1264;97221;-60
2023/06/20 04:20:49;;;;;;;15.20;11.10;;;;;;;18.51;75.50;98561.86;105103;1270;96586;-60
2023/06/20 04:23:16;;;;;;;16.50;11.40;;;;;;;18.65;75.33;98563.91;105017;1260;97854;-62
2023/06/20 04:25:43;;;;;;;17.40;11.40;;;;;;;18.85;74.75;98569.79;104940;1268;97479;-63
2023/06/20 04:28:10;;;;;;;16.60;12.00;;;;;;;19.00;74.13;98570.41;104902;1259;97429;-62
2023/06/20 04:30:37;;;;;;;17.70;11.20;;;;;;;19.15;73.35;98571.63;105068;1254;97882;-62
2023/06/20 04:33:05;;;;;;;15.70;10.70;;;;;;;19.23;72.92;98570.95;104939;1267;96606;-62
2023/06/20 04:35:35;;;;;;;16.80;11.90;;;;;;;19.39;72.64;98574.34;104978;1273;108438;-60
2023/06/20 04:38:04;;;;;;;22.40;12.10;;;;;;;19.48;72.44;98575.18;105147;1254;96557;-60
2023/06/20 04:40:31;;;;;;;25.30;11.90;;;;;;;19.58;72.08;98576.52;104869;1264;96749;-61
2023/06/20 04:42:59;;;;;;;18.40;12.30;;;;;;;19.65;71.57;98577.77;105306;1263;96863;-61
2023/06/20 04:45:26;;;;;;;17.60;12.60;;;;;;;19.71;71.45;98578.10;105188;1255;96540;-61
2023/06/20 04:47:57;;;;;;;18.00;11.60;;;;;;;19.83;70.91;98577.45;105126;1254;108727;-61
2023/06/20 04:50:26;;;;;;;19.00;12.50;;;;;;;19.96;70.82;98577.60;105221;1258;97533;-61
2023/06/20 04:52:53;;;;;;;16.00;11.80;;;;;;;20.13;70.55;98582.11;105096;1260;96577;-61
2023/06/20 04:55:21;;;;;;;14.80;11.90;;;;;;;20.33;70.03;98578.65;105159;1264;96654;-61
2023/06/20 04:57:48;;;;;;;19.40;12.70;;;;;;;20.54;69.48;98580.45;105212;1254;97092;-61
2023/06/20 05:00:16;;;;;;;18.80;14.80;;;;;;;20.74;69.05;98576.23;105197;1276;97886;-61
2023/06/20 05:02:44;;;;;;;19.50;15.00;;;;;;;20.90;67.82;98576.32;105242;1258;97872;-61
2023/06/20 05:05:12;;;;;;;17.50;12.80;;;;;;;21.05;67.60;98580.58;104961;1261;97945;-61
2023/06/20 05:07:41;;;;;;;16.60;11.70;;;;;;;21.22;67.03;98578.45;105170;1263;96558;-61
2023/06/20 05:10:09;;;;;;;12.40;9.70;;;;;;;21.35;66.22;98573.52;104936;1259;97867;-61
2023/06/20 05:12:36;;;;;;;12.60;9.50;;;;;;;21.43;65.03;98577.46;104895;1269;105743;-62
2023/06/20 05:15:04;;;;;;;13.40;9.10;;;;;;;21.49;64.92;98573.83;105021;1258;97459;-61
2023/06/20 05:17:32;;;;;;;15.50;9.70;;;;;;;21.53;64.59;98569.55;105179;1257;96533;-64
2023/06/20 05:20:05;;;;;;;13.20;9.40;;;;;;;21.57;64.29;98570.20;105092;1254;110873;-63
2023/06/20 05:22:33;;;;;;;15.90;10.70;;;;;;;21.68;64.70;98577.83;105231;1254;98322;-61
2023/06/20 05:25:01;;;;;;;12.80;9.60;;;;;;;21.86;64.25;98580.32;105287;1258;108512;-61
2023/06/20 05:27:28;;;;;;;11.90;9.10;;;;;;;22.02;63.92;98584.36;105227;1257;97482;-61
2023/06/20 05:29:55;;;;;;;12.60;9.30;;;;;;;22.19;63.49;98588.72;105364;1257;96540;-62
2023/06/20 05:32:22;;;;;;;12.30;8.70;;;;;;;22.33;62.44;98589.15;105354;1257;97451;-61
2023/06/20 05:34:50;;;;;;;11.90;9.20;;;;;;;22.39;62.01;98590.75;105025;1268;96604;-61
2023/06/20 05:37:17;;;;;;;11.50;9.40;;;;;;;22.56;62.27;98590.95;105134;1267;97164;-63
2023/06/20 05:39:44;;;;;;;14.50;10.20;;;;;;;22.73;61.37;98596.16;105151;1258;96536;-62
2023/06/20 05:42:12;;;;;;;12.10;9.40;;;;;;;22.76;61.29;98594.25;105116;1254;97462;-62
2023/06/20 05:44:39;;;;;;;11.90;9.40;;;;;;;22.72;60.64;98591.54;104992;1254;97106;-62
2023/06/20 05:47:06;;;;;;;15.40;10.60;;;;;;;22.66;60.90;98589.54;105018;1257;96540;-62
2023/06/20 05:49:34;;;;;;;13.90;9.70;;;;;;;22.74;61.17;98590.49;104990;1257;97874;-62
2023/06/20 05:52:01;;;;;;;15.60;10.20;;;;;;;22.89;60.92;98588.19;104951;1258;96572;-62
2023/06/20 05:54:28;;;;;;;15.50;10.20;;;;;;;23.04;60.23;98589.05;105041;1255;97470;-63
2023/06/20 05:56:56;;;;;;;13.00;10.10;;;;;;;23.11;60.10;98588.41;104994;1257;96690;-62
2023/06/20 05:59:23;;;;;;;12.40;10.20;;;;;;;23.17;60.09;98585.45;105072;1255;96559;-62
2023/06/20 06:01:50;;;;;;;12.40;9.50;;;;;;;23.34;59.80;98589.33;104992;1267;97225;-62
2023/06/20 06:04:18;;;;;;;13.20;10.40;;;;;;;23.50;59.13;98589.71;105033;1254;97860;-62
2023/06/20 06:06:46;;;;;;;20.70;10.30;;;;;;;23.58;58.95;98591.92;105091;1256;96558;-62
2023/06/20 06:09:15;;;;;;;13.80;9.80;;;;;;;23.58;58.70;98595.05;104980;1268;97277;-62
2023/06/20 06:11:45;;;;;;;18.60;9.80;;;;;;;23.70;58.66;98594.38;105044;1266;99518;-62
2023/06/20 06:14:23;;;;;;;13.90;9.60;;;;;;;23.94;58.48;98597.39;104984;1257;109325;-60
2023/06/20 06:17:00;;;;;;;13.20;8.80;;;;;;;24.16;57.08;98589.70;105016;1257;96645;-61
2023/06/20 06:19:27;;;;;;;13.90;9.10;;;;;;;24.32;56.69;98593.63;105067;1254;97062;-62
2023/06/20 06:21:54;;;;;;;14.30;9.00;;;;;;;24.48;56.90;98596.81;105058;1258;96979;-62
2023/06/20 06:24:26;;;;;;;10.30;8.00;;;;;;;24.70;56.13;98600.02;105043;1258;98739;-62
2023/06/20 06:26:53;;;;;;;11.50;7.90;;;;;;;24.92;54.67;98600.02;104978;1261;96744;-62
2023/06/20 06:29:20;;;;;;;10.90;8.30;;;;;;;25.10;53.92;98600.52;105020;1257;96584;-63
2023/06/20 06:31:48;;;;;;;9.20;7.90;;;;;;;25.27;53.71;98600.84;105034;1257;96628;-62
2023/06/20 06:34:18;;;;;;;11.70;8.00;;;;;;;25.50;53.36;98599.23;105005;1266;96608;-62
2023/06/20 06:36:49;;;;;;;10.60;7.60;;;;;;;25.72;52.19;98592.36;105049;1268;100101;-62
2023/06/20 06:39:18;;;;;;;13.60;8.20;;;;;;;25.85;51.20;98597.02;105895;1267;108181;-63
2023/06/20 06:41:49;;;;;;;14.80;8.20;;;;;;;26.03;51.52;98600.02;104944;1261;96542;-63
2023/06/20 06:44:17;;;;;;;12.70;8.40;;;;;;;26.25;50.78;98604.05;104946;1258;96673;-64
2023/06/20 06:46:45;;;;;;;13.70;8.70;;;;;;;26.47;50.16;98604.89;105036;1259;110444;-67
2023/06/20 06:49:12;;;;;;;14.80;9.10;;;;;;;26.61;49.31;98608.05;105041;1265;98914;-61
2023/06/20 06:51:40;;;;;;;18.20;10.30;;;;;;;26.72;48.53;98617.04;105002;1254;96567;-61
2023/06/20 06:54:07;;;;;;;19.50;9.80;;;;;;;26.79;47.91;98615.95;105006;1254;96580;-61
2023/06/20 06:56:38;;;;;;;16.50;10.40;;;;;;;26.85;47.97;98620.94;104878;1255;96551;-61
2023/06/20 06:59:11;;;;;;;18.80;9.90;;;;;;;26.97;48.23;98618.56;104846;1262;110264;-61
2023/06/20 07:01:45;;;;;;;18.70;10.10;;;;;;;27.27;48.16;98614.06;104914;1261;98580;-62
2023/06/20 07:04:14;;;;;;;14.70;8.90;;;;;;;27.48;47.22;98616.02;104966;1261;108132;-61
2023/06/20 07:06:41;;;;;;;13.90;9.10;;;;;;;27.50;47.06;98612.36;105033;1270;96871;-61
2023/06/20 07:09:09;;;;;;;14.80;9.10;;;;;;;27.59;46.93;98615.02;105205;1255;96536;-61
2023/06/20 07:11:36;;;;;;;16.30;9.00;;;;;;;27.64;46.94;98611.78;105243;1257;110937;-61
2023/06/20 07:14:03;;;;;;;12.50;8.60;;;;;;;27.78;47.12;98611.91;105172;1267;96550;-61
2023/06/20 07:16:31;;;;;;;15.10;8.60;;;;;;;28.02;46.91;98614.10;105107;1258;97441;-61
2023/06/20 07:18:59;;;;;;;15.50;9.70;;;;;;;28.13;46.54;98609.27;105187;1267;96555;-61
2023/06/20 07:21:27;;;;;;;15.10;9.60;;;;;;;28.32;46.86;98612.35;105220;1255;98359;-61
2023/06/20 07:23:54;;;;;;;17.10;10.10;;;;;;;28.51;45.73;98613.61;105135;1267;96530;-61
2023/06/20 07:26:21;;;;;;;14.80;9.20;;;;;;;28.62;46.17;98614.80;105075;1269;97844;-61
2023/06/20 07:28:48;;;;;;;16.20;9.30;;;;;;;28.77;46.10;98615.02;105163;1259;96588;-61
2023/06/20 07:31:18;;;;;;;13.80;8.40;;;;;;;29.00;45.22;98614.40;105174;1254;96560;-61
2023/06/20 07:33:45;;;;;;;11.10;8.60;;;;;;;29.27;44.59;98610.49;105492;1257;96555;-61
2023/06/20 07:36:13;;;;;;;11.40;8.20;;;;;;;29.46;44.40;98617.18;105062;1266;110891;-62
2023/06/20 07:38:41;;;;;;;9.10;7.00;;;;;;;29.65;43.32;98611.84;105093;1268;99165;-62
2023/06/20 07:41:08;;;;;;;8.50;6.50;;;;;;;29.83;41.44;98613.13;104944;1262;108174;-62
2023/06/20 07:43:35;;;;;;;9.80;8.30;;;;;;;29.97;41.69;98613.77;104996;1257;96675;-63
2023/06/20 07:46:03;;;;;;;12.90;11.10;;;;;;;30.18;41.26;98612.54;105107;1267;97073;-63
2023/06/20 07:48:30;;;;;;;7.50;5.80;;;;;;;30.34;40.15;98609.48;105017;1256;96748;-63
2023/06/20 07:50:57;;;;;;;10.90;7.20;;;;;;;30.52;39.64;98616.20;105071;1257;96596;-63
2023/06/20 07:53:25;;;;;;;10.80;7.30;;;;;;;30.71;38.26;98615.92;105032;1255;96568;-63
2023/06/20 07:55:55;;;;;;;7.80;6.20;;;;;;;30.81;37.64;98615.30;105030;1257;96578;-63
2023/06/20 07:58:23;;;;;;;7.80;6.30;;;;;;;30.90;37.56;98611.91;105085;1266;96551;-62
2023/06/20 08:00:50;;;;;;;8.80;6.20;;;;;;;30.96;38.02;98613.45;105049;1259;96462;-62
2023/06/20 08:03:21;;;;;;;9.30;6.10;;;;;;;31.21;37.97;98609.10;105038;1258;97776;-62
2023/06/20 08:05:49;;;;;;;10.80;6.60;;;;;;;31.58;37.73;98610.20;104806;1261;107622;-63
2023/06/20 08:08:16;;;;;;;6.80;6.10;;;;;;;31.85;36.52;98608.48;104962;1259;96472;-62
2023/06/20 08:10:44;;;;;;;7.10;6.00;;;;;;;31.98;35.13;98608.05;105151;1259;97470;-63
2023/06/20 08:13:11;;;;;;;7.80;6.00;;;;;;;32.02;35.19;98609.22;105238;1257;110913;-61
2023/06/20 08:15:39;;;;;;;7.30;6.00;;;;;;;32.00;34.79;98612.58;105179;1258;96621;-62
2023/06/20 08:18:06;;;;;;;9.60;6.20;;;;;;;32.02;35.12;98610.89;105185;1258;96685;-61
2023/06/20 08:20:33;;;;;;;9.00;6.70;;;;;;;32.05;35.20;98615.47;105137;1258;96567;-61
2023/06/20 08:23:00;;;;;;;9.80;6.00;;;;;;;32.29;35.33;98612.11;105194;1254;97742;-62
2023/06/20 08:25:28;;;;;;;8.90;6.00;;;;;;;32.61;35.64;98612.45;105109;1259;98810;-61
2023/06/20 08:27:56;;;;;;;8.10;5.30;;;;;;;32.74;35.61;98605.98;105188;1254;98067;-61
2023/06/20 08:30:39;;;;;;;8.50;6.20;;;;;;;33.03;34.30;98610.91;104981;1266;108121;-61
2023/06/20 08:33:07;;;;;;;7.20;5.40;;;;;;;33.27;34.69;98614.46;105170;1257;97914;-62
2023/06/20 08:35:34;;;;;;;5.90;5.30;;;;;;;33.39;33.23;98618.23;105182;1254;98369;-61
2023/06/20 08:38:01;;;;;;;9.00;5.70;;;;;;;33.61;33.67;98615.77;105197;1267;97934;-61
2023/06/20 08:40:30;;;;;;;6.10;5.40;;;;;;;33.71;32.51;98618.11;105195;1253;97919;-61
2023/06/20 08:42:58;;;;;;;8.10;6.20;;;;;;;33.81;32.48;98617.80;105185;1258;108210;-61
2023/06/20 08:45:29;;;;;;;8.30;6.10;;;;;;;33.85;32.49;98614.88;105134;1260;97960;-61
2023/06/20 08:48:00;;;;;;;7.70;6.30;;;;;;;34.09;33.07;98618.42;105182;1258;98697;-61
2023/06/20 08:50:32;;;;;;;7.80;5.80;;;;;;;34.13;31.94;98624.02;105024;1254;110687;-61
2023/06/20 08:53:04;;;;;;;9.90;5.90;;;;;;;34.21;32.93;98620.16;104882;1261;98494;-61
2023/06/20 08:55:33;;;;;;;6.20;5.60;;;;;;;34.36;32.91;98617.48;104943;1269;107617;-61
2023/06/20 08:58:00;;;;;;;6.80;5.30;;;;;;;34.51;33.42;98619.89;105036;1258;97908;-62
2023/06/20 09:00:31;;;;;;;7.30;5.60;;;;;;;34.84;32.54;98619.27;105004;1257;97951;-61
2023/06/20 09:02:58;;;;;;;9.20;5.70;;;;;;;34.98;32.93;98615.42;105114;1271;98010;-61
2023/06/20 09:05:30;;;;;;;6.20;5.20;;;;;;;35.15;31.87;98609.20;105166;1254;97912;-61
2023/06/20 09:07:57;;;;;;;11.60;5.30;;;;;;;35.49;31.23;98605.34;104982;1263;107132;-62
2023/06/20 09:10:25;;;;;;;6.30;5.60;;;;;;;35.67;31.29;98607.06;104946;1258;97910;-62
2023/06/20 09:12:56;;;;;;;8.30;6.40;;;;;;;35.91;29.80;98607.67;104979;1260;97964;-62
2023/06/20 09:15:27;;;;;;;7.20;5.30;;;;;;;36.03;28.55;98605.66;104762;1254;111252;-61
2023/06/20 09:17:59;;;;;;;7.70;5.90;;;;;;;35.99;28.30;98610.26;105002;1257;98962;-62
2023/06/20 09:20:31;;;;;;;5.50;4.90;;;;;;;35.90;27.70;98606.36;104901;1268;107445;-62
2023/06/20 09:22:59;;;;;;;6.40;5.40;;;;;;;35.72;27.85;98609.98;104984;1270;97897;-61
2023/06/20 09:25:29;;;;;;;7.00;5.50;;;;;;;35.71;28.44;98603.73;105029;1259;97899;-61
2023/06/20 09:27:57;;;;;;;6.10;5.20;;;;;;;35.97;28.16;98602.09;106101;1254;112680;-62
2023/06/20 09:30:29;;;;;;;5.60;5.10;;;;;;;36.12;28.55;98603.11;104987;1259;99155;-62
2023/06/20 09:33:03;;;;;;;5.50;5.00;;;;;;;36.46;28.58;98602.28;104802;1258;108688;-62
2023/06/20 09:35:31;;;;;;;5.80;4.70;;;;;;;36.93;28.48;98601.83;104980;1258;99204;-64
2023/06/20 09:38:04;;;;;;;6.10;5.00;;;;;;;37.06;28.10;98600.59;104996;1259;99142;-62
2023/06/20 09:40:40;;;;;;;5.60;5.00;;;;;;;37.13;27.38;98598.86;104940;1260;111356;-62
2023/06/20 09:43:09;;;;;;;5.70;5.10;;;;;;;37.02;25.87;98599.29;104894;1262;99016;-61
2023/06/20 09:45:36;;;;;;;6.00;5.30;;;;;;;36.96;26.54;98596.88;105016;1261;109348;-62
2023/06/20 09:48:04;;;;;;;6.50;5.90;;;;;;;37.00;26.18;98594.60;104961;1272;98098;-61
2023/06/20 09:50:34;;;;;;;5.60;5.10;;;;;;;37.12;27.46;98596.45;105196;1258;97898;-61
2023/06/20 09:53:06;;;;;;;;;;;;;;;37.37;26.40;98598.53;105052;1259;112150;-62
2023/06/20 09:55:35;;;;;;;9.10;6.40;;;;;;;37.43;25.58;98595.28;104957;1270;98019;-62
2023/06/20 09:58:04;;;;;;;9.10;7.20;;;;;;;37.26;25.51;98597.29;104907;1255;107676;-62
2023/06/20 10:00:33;;;;;;;7.50;5.70;;;;;;;37.35;25.84;98599.09;104878;1264;97952;-61
2023/06/20 10:03:06;;;;;;;7.10;5.00;;;;;;;37.55;24.65;98590.78;105083;1258;97918;-61
2023/06/20 10:05:33;;;;;;;5.50;5.00;;;;;;;37.36;24.80;98590.67;104882;1262;111329;-62
2023/06/20 10:08:01;;;;;;;5.90;5.00;;;;;;;37.31;25.16;98590.32;105057;1267;99283;-61
2023/06/20 10:10:28;;;;;;;5.80;4.80;;;;;;;37.52;26.09;98585.61;105003;1257;108551;-62
2023/06/20 10:12:57;;;;;;;4.90;4.50;;;;;;;37.79;25.79;98583.86;105022;1271;97971;-62
2023/06/20 10:15:25;;;;;;;5.70;5.10;;;;;;;37.72;26.18;98582.61;105048;1259;99114;-62
2023/06/20 10:17:52;;;;;;;5.30;4.80;;;;;;;37.67;26.61;98584.40;105031;1258;111737;-62
2023/06/20 10:20:33;;;;;;;5.70;5.00;;;;;;;37.70;25.82;98583.77;105060;1258;99256;-62
2023/06/20 10:23:05;;;;;;;6.10;4.90;;;;;;;38.06;25.97;98580.94;104889;1253;107783;-60
2023/06/20 10:25:33;;;;;;;5.20;4.70;;;;;;;37.76;25.05;98575.84;104805;1266;98011;-60
2023/06/20 10:28:09;;;;;;;7.30;5.20;;;;;;;37.98;26.19;98577.95;104926;1261;99257;-60
2023/06/20 10:30:53;;;;;;;6.80;5.50;;;;;;;38.20;24.93;98574.34;105019;1261;110329;-60
2023/06/20 10:33:26;;;;;;;6.70;5.30;;;;;;;38.45;25.44;98574.16;105030;1260;98235;-60
2023/06/20 10:36:00;;;;;;;6.40;5.30;;;;;;;38.70;25.26;98579.64;104907;1269;107564;-60
2023/06/20 10:38:29;;;;;;;7.30;5.30;;;;;;;38.85;25.41;98573.57;104951;1271;98089;-60
2023/06/20 10:41:12;;;;;;;7.10;5.30;;;;;;;38.95;25.11;98572.38;105100;1253;98029;-60
2023/06/20 10:43:53;;;;;;;7.80;5.20;;;;;;;38.91;25.05;98568.30;104979;1262;111171;-60
2023/06/20 10:46:37;;;;;;;6.00;5.20;;;;;;;39.01;24.97;98571.83;104991;1260;98047;-60
2023/06/20 10:49:06;;;;;;;9.10;5.60;;;;;;;38.95;25.83;98577.52;105028;1256;108075;-61
2023/06/20 10:51:43;;;;;;;7.30;5.70;;;;;;;38.78;24.95;98571.30;105032;1258;97893;-61
2023/06/20 10:54:15;;;;;;;10.60;6.10;;;;;;;38.55;25.31;98573.96;104952;1259;97909;-61
2023/06/20 10:56:46;;;;;;;6.40;5.80;;;;;;;38.44;25.20;98570.61;105022;1258;112242;-61
2023/06/20 10:59:19;;;;;;;6.20;5.50;;;;;;;38.39;24.75;98568.35;104887;1276;98068;-63
2023/06/20 11:01:47;;;;;;;6.90;5.50;;;;;;;38.32;25.64;98564.81;105011;1260;107419;-61
2023/06/20 11:04:16;;;;;;;5.90;5.40;;;;;;;38.06;26.19;98560.81;105049;1259;97871;-61
2023/06/20 11:06:43;;;;;;;8.50;5.40;;;;;;;37.89;26.80;98562.69;105030;1260;99397;-61
2023/06/20 11:09:25;;;;;;;6.10;5.50;;;;;;;37.82;26.98;98561.29;104941;1260;98683;-61
2023/06/20 11:11:52;;;;;;;5.90;5.40;;;;;;;37.85;26.14;98557.63;105039;1257;99228;-61
2023/06/20 11:14:22;;;;;;;6.00;5.10;;;;;;;37.87;26.03;98558.11;104965;1270;97920;-61
2023/06/20 11:16:51;;;;;;;5.80;5.30;;;;;;;37.97;26.19;98559.33;105009;1261;99043;-62
2023/06/20 11:19:23;;;;;;;6.40;5.40;;;;;;;37.94;24.53;98555.41;105041;1258;99236;-62
2023/06/20 11:21:54;;;;;;;7.10;6.00;;;;;;;37.60;26.04;98554.20;105010;1258;111241;-61
2023/06/20 11:24:21;;;;;;;5.60;4.90;;;;;;;37.42;26.31;98559.79;105061;1260;98051;-61
2023/06/20 11:26:49;;;;;;;5.00;4.60;;;;;;;37.56;24.49;98556.30;105034;1269;107591;-62